sensor_id;sensor_type;location;lat;lon;timestamp;P1;durP1;ratioP1;P2;durP2;ratioP2
21183;SDS011;18176;49.502;11.754;2022-07-23T00:03:27;10.90;;;8.73;;
21183;SDS011;18176;49.502;11.754;2022-07-23T00:07:24;11.00;;;8.68;;
21183;SDS011;18176;49.502;11.754;2022-07-23T00:11:21;12.10;;;9.07;;
21183;SDS011;18176;49.502;11.754;2022-07-23T00:15:18;10.80;;;9.70;;
21183;SDS011;18176;49.502;11.754;2022-07-23T00:19:15;10.30;;;9.02;;
21183;SDS011;18176;49.502;11.754;2022-07-23T00:23:12;12.82;;;8.98;;
21183;SDS011;18176;49.502;11.754;2022-07-23T00:27:09;10.75;;;9.00;;
21183;SDS011;18176;49.502;11.754;2022-07-23T00:31:06;13.32;;;8.82;;
21183;SDS011;18176;49.502;11.754;2022-07-23T00:35:04;11.82;;;8.57;;
21183;SDS011;18176;49.502;11.754;2022-07-23T00:39:02;10.65;;;9.55;;
21183;SDS011;18176;49.502;11.754;2022-07-23T00:43:00;14.52;;;9.18;;
21183;SDS011;18176;49.502;11.754;2022-07-23T00:46:57;10.55;;;8.75;;
21183;SDS011;18176;49.502;11.754;2022-07-23T00:50:55;12.65;;;9.25;;
21183;SDS011;18176;49.502;11.754;2022-07-23T00:54:52;12.23;;;10.32;;
21183;SDS011;18176;49.502;11.754;2022-07-23T00:58:49;15.50;;;10.20;;
21183;SDS011;18176;49.502;11.754;2022-07-23T01:02:47;12.10;;;10.10;;
21183;SDS011;18176;49.502;11.754;2022-07-23T01:06:44;11.60;;;9.38;;
21183;SDS011;18176;49.502;11.754;2022-07-23T01:10:42;14.43;;;9.60;;
21183;SDS011;18176;49.502;11.754;2022-07-23T01:14:39;15.93;;;10.55;;
21183;SDS011;18176;49.502;11.754;2022-07-23T01:18:36;16.40;;;11.00;;
21183;SDS011;18176;49.502;11.754;2022-07-23T01:22:33;12.82;;;9.80;;
21183;SDS011;18176;49.502;11.754;2022-07-23T01:26:30;10.77;;;8.88;;
21183;SDS011;18176;49.502;11.754;2022-07-23T01:30:28;11.90;;;8.88;;
21183;SDS011;18176;49.502;11.754;2022-07-23T01:34:27;11.55;;;8.38;;
21183;SDS011;18176;49.502;11.754;2022-07-23T01:38:24;10.93;;;8.35;;
21183;SDS011;18176;49.502;11.754;2022-07-23T01:42:21;10.80;;;9.13;;
21183;SDS011;18176;49.502;11.754;2022-07-23T01:46:18;10.38;;;8.80;;
21183;SDS011;18176;49.502;11.754;2022-07-23T01:50:18;10.90;;;8.32;;
21183;SDS011;18176;49.502;11.754;2022-07-23T01:54:34;12.73;;;8.65;;
21183;SDS011;18176;49.502;11.754;2022-07-23T01:58:34;10.10;;;8.07;;
21183;SDS011;18176;49.502;11.754;2022-07-23T02:02:31;11.48;;;8.20;;
21183;SDS011;18176;49.502;11.754;2022-07-23T02:06:31;8.60;;;7.80;;
21183;SDS011;18176;49.502;11.754;2022-07-23T02:10:28;11.55;;;8.45;;
21183;SDS011;18176;49.502;11.754;2022-07-23T02:14:25;9.68;;;7.72;;
21183;SDS011;18176;49.502;11.754;2022-07-23T02:18:23;12.20;;;9.00;;
21183;SDS011;18176;49.502;11.754;2022-07-23T02:22:20;11.65;;;8.10;;
21183;SDS011;18176;49.502;11.754;2022-07-23T02:26:18;11.10;;;8.70;;
21183;SDS011;18176;49.502;11.754;2022-07-23T02:30:19;11.93;;;9.20;;
21183;SDS011;18176;49.502;11.754;2022-07-23T02:34:16;11.48;;;8.98;;
21183;SDS011;18176;49.502;11.754;2022-07-23T02:38:13;9.85;;;8.35;;
21183;SDS011;18176;49.502;11.754;2022-07-23T02:42:10;9.35;;;8.20;;
21183;SDS011;18176;49.502;11.754;2022-07-23T02:46:07;10.65;;;8.63;;
21183;SDS011;18176;49.502;11.754;2022-07-23T02:50:05;10.40;;;8.27;;
21183;SDS011;18176;49.502;11.754;2022-07-23T02:54:03;9.18;;;8.15;;
21183;SDS011;18176;49.502;11.754;2022-07-23T02:58:00;15.68;;;8.50;;
21183;SDS011;18176;49.502;11.754;2022-07-23T03:01:57;12.98;;;7.95;;
21183;SDS011;18176;49.502;11.754;2022-07-23T03:05:56;8.88;;;7.97;;
21183;SDS011;18176;49.502;11.754;2022-07-23T03:09:53;11.95;;;9.02;;
21183;SDS011;18176;49.502;11.754;2022-07-23T03:13:51;10.00;;;8.48;;
21183;SDS011;18176;49.502;11.754;2022-07-23T03:17:49;9.38;;;8.40;;
21183;SDS011;18176;49.502;11.754;2022-07-23T03:21:46;9.70;;;8.63;;
21183;SDS011;18176;49.502;11.754;2022-07-23T03:25:43;17.98;;;9.95;;
21183;SDS011;18176;49.502;11.754;2022-07-23T03:29:47;12.27;;;9.27;;
21183;SDS011;18176;49.502;11.754;2022-07-23T03:33:45;12.98;;;9.55;;
21183;SDS011;18176;49.502;11.754;2022-07-23T03:37:42;13.85;;;9.48;;
21183;SDS011;18176;49.502;11.754;2022-07-23T03:41:42;11.63;;;8.93;;
21183;SDS011;18176;49.502;11.754;2022-07-23T03:45:39;11.52;;;9.40;;
21183;SDS011;18176;49.502;11.754;2022-07-23T03:49:37;11.02;;;9.63;;
21183;SDS011;18176;49.502;11.754;2022-07-23T03:53:34;15.52;;;10.10;;
21183;SDS011;18176;49.502;11.754;2022-07-23T03:57:31;14.13;;;10.45;;
21183;SDS011;18176;49.502;11.754;2022-07-23T04:01:28;13.07;;;10.60;;
21183;SDS011;18176;49.502;11.754;2022-07-23T04:05:27;13.65;;;10.90;;
21183;SDS011;18176;49.502;11.754;2022-07-23T04:09:33;13.77;;;10.32;;
21183;SDS011;18176;49.502;11.754;2022-07-23T04:13:30;13.10;;;9.77;;
21183;SDS011;18176;49.502;11.754;2022-07-23T04:17:30;18.13;;;11.73;;
21183;SDS011;18176;49.502;11.754;2022-07-23T04:21:27;14.18;;;10.88;;
21183;SDS011;18176;49.502;11.754;2022-07-23T04:25:24;17.40;;;10.40;;
21183;SDS011;18176;49.502;11.754;2022-07-23T04:29:21;15.75;;;10.30;;
21183;SDS011;18176;49.502;11.754;2022-07-23T04:33:19;12.77;;;10.02;;
21183;SDS011;18176;49.502;11.754;2022-07-23T04:37:19;11.82;;;10.55;;
21183;SDS011;18176;49.502;11.754;2022-07-23T04:41:16;16.98;;;11.20;;
21183;SDS011;18176;49.502;11.754;2022-07-23T04:45:13;14.98;;;10.95;;
21183;SDS011;18176;49.502;11.754;2022-07-23T04:49:12;12.75;;;11.18;;
21183;SDS011;18176;49.502;11.754;2022-07-23T04:53:09;16.13;;;12.15;;
21183;SDS011;18176;49.502;11.754;2022-07-23T04:57:06;17.80;;;11.63;;
21183;SDS011;18176;49.502;11.754;2022-07-23T05:01:03;16.00;;;11.43;;
21183;SDS011;18176;49.502;11.754;2022-07-23T05:05:03;14.80;;;11.20;;
21183;SDS011;18176;49.502;11.754;2022-07-23T05:09:01;15.50;;;11.38;;
21183;SDS011;18176;49.502;11.754;2022-07-23T05:12:59;13.27;;;11.25;;
21183;SDS011;18176;49.502;11.754;2022-07-23T05:16:56;11.18;;;10.07;;
21183;SDS011;18176;49.502;11.754;2022-07-23T05:20:54;12.43;;;10.18;;
21183;SDS011;18176;49.502;11.754;2022-07-23T05:24:52;11.50;;;10.30;;
21183;SDS011;18176;49.502;11.754;2022-07-23T05:28:50;13.27;;;11.70;;
21183;SDS011;18176;49.502;11.754;2022-07-23T05:32:48;16.65;;;11.18;;
21183;SDS011;18176;49.502;11.754;2022-07-23T05:36:46;12.75;;;10.98;;
21183;SDS011;18176;49.502;11.754;2022-07-23T05:40:45;14.75;;;11.88;;
21183;SDS011;18176;49.502;11.754;2022-07-23T05:44:42;15.45;;;12.10;;
21183;SDS011;18176;49.502;11.754;2022-07-23T05:48:39;17.30;;;11.48;;
21183;SDS011;18176;49.502;11.754;2022-07-23T05:52:48;15.60;;;11.27;;
21183;SDS011;18176;49.502;11.754;2022-07-23T05:57:08;13.35;;;9.98;;
21183;SDS011;18176;49.502;11.754;2022-07-23T06:01:08;12.73;;;10.15;;
21183;SDS011;18176;49.502;11.754;2022-07-23T06:05:13;9.55;;;7.38;;
21183;SDS011;18176;49.502;11.754;2022-07-23T06:09:10;9.88;;;8.13;;
21183;SDS011;18176;49.502;11.754;2022-07-23T06:13:10;11.00;;;7.97;;
21183;SDS011;18176;49.502;11.754;2022-07-23T06:17:07;8.50;;;6.53;;
21183;SDS011;18176;49.502;11.754;2022-07-23T06:21:05;9.95;;;6.43;;
21183;SDS011;18176;49.502;11.754;2022-07-23T06:25:22;6.20;;;5.18;;
21183;SDS011;18176;49.502;11.754;2022-07-23T06:29:20;6.13;;;4.50;;
21183;SDS011;18176;49.502;11.754;2022-07-23T06:33:17;8.82;;;4.32;;
21183;SDS011;18176;49.502;11.754;2022-07-23T06:37:14;5.65;;;4.45;;
21183;SDS011;18176;49.502;11.754;2022-07-23T06:41:15;6.50;;;4.65;;
21183;SDS011;18176;49.502;11.754;2022-07-23T06:45:12;5.15;;;4.30;;
21183;SDS011;18176;49.502;11.754;2022-07-23T06:49:09;6.00;;;4.82;;
21183;SDS011;18176;49.502;11.754;2022-07-23T06:53:06;5.13;;;4.57;;
21183;SDS011;18176;49.502;11.754;2022-07-23T06:57:03;7.47;;;5.00;;
21183;SDS011;18176;49.502;11.754;2022-07-23T07:01:01;8.38;;;4.90;;
21183;SDS011;18176;49.502;11.754;2022-07-23T07:04:58;7.57;;;5.05;;
21183;SDS011;18176;49.502;11.754;2022-07-23T07:09:01;5.57;;;4.80;;
21183;SDS011;18176;49.502;11.754;2022-07-23T07:12:59;6.28;;;5.00;;
21183;SDS011;18176;49.502;11.754;2022-07-23T07:16:56;5.47;;;4.78;;
21183;SDS011;18176;49.502;11.754;2022-07-23T07:20:53;5.90;;;5.30;;
21183;SDS011;18176;49.502;11.754;2022-07-23T07:24:52;5.70;;;5.00;;
21183;SDS011;18176;49.502;11.754;2022-07-23T07:28:49;7.75;;;5.25;;
21183;SDS011;18176;49.502;11.754;2022-07-23T07:32:46;7.55;;;5.53;;
21183;SDS011;18176;49.502;11.754;2022-07-23T07:36:53;16.00;;;5.78;;
21183;SDS011;18176;49.502;11.754;2022-07-23T07:40:50;7.47;;;6.10;;
21183;SDS011;18176;49.502;11.754;2022-07-23T07:44:47;9.13;;;7.18;;
21183;SDS011;18176;49.502;11.754;2022-07-23T07:48:46;8.00;;;6.88;;
21183;SDS011;18176;49.502;11.754;2022-07-23T07:52:43;9.63;;;6.80;;
21183;SDS011;18176;49.502;11.754;2022-07-23T07:56:40;9.95;;;7.68;;
21183;SDS011;18176;49.502;11.754;2022-07-23T08:00:37;8.88;;;7.55;;
21183;SDS011;18176;49.502;11.754;2022-07-23T08:04:34;12.52;;;7.90;;
21183;SDS011;18176;49.502;11.754;2022-07-23T08:08:31;10.32;;;7.95;;
21183;SDS011;18176;49.502;11.754;2022-07-23T08:12:37;9.07;;;7.18;;
21183;SDS011;18176;49.502;11.754;2022-07-23T08:16:45;11.05;;;7.50;;
21183;SDS011;18176;49.502;11.754;2022-07-23T08:21:02;8.35;;;7.60;;
21183;SDS011;18176;49.502;11.754;2022-07-23T08:25:01;8.98;;;6.93;;
21183;SDS011;18176;49.502;11.754;2022-07-23T08:29:00;8.23;;;7.00;;
21183;SDS011;18176;49.502;11.754;2022-07-23T08:32:58;10.98;;;7.25;;
21183;SDS011;18176;49.502;11.754;2022-07-23T08:37:01;9.98;;;7.03;;
21183;SDS011;18176;49.502;11.754;2022-07-23T08:40:58;9.23;;;6.85;;
21183;SDS011;18176;49.502;11.754;2022-07-23T08:44:55;9.57;;;7.05;;
21183;SDS011;18176;49.502;11.754;2022-07-23T08:48:55;8.63;;;7.18;;
21183;SDS011;18176;49.502;11.754;2022-07-23T08:52:53;8.70;;;7.85;;
21183;SDS011;18176;49.502;11.754;2022-07-23T08:56:50;11.25;;;8.02;;
21183;SDS011;18176;49.502;11.754;2022-07-23T09:00:48;8.75;;;7.78;;
21183;SDS011;18176;49.502;11.754;2022-07-23T09:04:45;8.98;;;8.13;;
21183;SDS011;18176;49.502;11.754;2022-07-23T09:08:43;8.85;;;7.90;;
21183;SDS011;18176;49.502;11.754;2022-07-23T09:12:42;8.60;;;7.78;;
21183;SDS011;18176;49.502;11.754;2022-07-23T09:16:39;10.23;;;8.02;;
21183;SDS011;18176;49.502;11.754;2022-07-23T09:20:36;9.23;;;8.25;;
21183;SDS011;18176;49.502;11.754;2022-07-23T09:24:34;11.75;;;7.82;;
21183;SDS011;18176;49.502;11.754;2022-07-23T09:28:31;8.35;;;7.55;;
21183;SDS011;18176;49.502;11.754;2022-07-23T09:32:28;10.15;;;7.50;;
21183;SDS011;18176;49.502;11.754;2022-07-23T09:36:28;10.82;;;7.13;;
21183;SDS011;18176;49.502;11.754;2022-07-23T09:40:26;7.50;;;6.80;;
21183;SDS011;18176;49.502;11.754;2022-07-23T09:44:24;7.00;;;5.88;;
21183;SDS011;18176;49.502;11.754;2022-07-23T09:48:24;7.95;;;5.97;;
21183;SDS011;18176;49.502;11.754;2022-07-23T09:52:26;8.30;;;6.07;;
21183;SDS011;18176;49.502;11.754;2022-07-23T09:56:31;8.68;;;5.82;;
21183;SDS011;18176;49.502;11.754;2022-07-23T10:00:32;9.07;;;5.63;;
21183;SDS011;18176;49.502;11.754;2022-07-23T10:04:30;9.65;;;6.32;;
21183;SDS011;18176;49.502;11.754;2022-07-23T10:08:42;8.25;;;5.97;;
21183;SDS011;18176;49.502;11.754;2022-07-23T10:13:21;7.05;;;5.50;;
21183;SDS011;18176;49.502;11.754;2022-07-23T10:17:38;6.20;;;5.28;;
21183;SDS011;18176;49.502;11.754;2022-07-23T10:26:09;8.63;;;5.80;;
21183;SDS011;18176;49.502;11.754;2022-07-23T10:39:44;9.20;;;6.15;;
21183;SDS011;18176;49.502;11.754;2022-07-23T10:43:41;7.40;;;6.50;;
21183;SDS011;18176;49.502;11.754;2022-07-23T10:47:38;7.32;;;6.63;;
21183;SDS011;18176;49.502;11.754;2022-07-23T10:52:14;7.70;;;6.85;;
21183;SDS011;18176;49.502;11.754;2022-07-23T11:00:52;7.93;;;6.80;;
21183;SDS011;18176;49.502;11.754;2022-07-23T11:04:58;8.55;;;5.95;;
21183;SDS011;18176;49.502;11.754;2022-07-23T11:09:23;8.15;;;6.35;;
21183;SDS011;18176;49.502;11.754;2022-07-23T11:13:40;6.88;;;5.93;;
21183;SDS011;18176;49.502;11.754;2022-07-23T11:21:44;6.75;;;5.60;;
21183;SDS011;18176;49.502;11.754;2022-07-23T11:25:42;6.30;;;5.45;;
21183;SDS011;18176;49.502;11.754;2022-07-23T11:29:43;10.77;;;7.05;;
21183;SDS011;18176;49.502;11.754;2022-07-23T11:33:43;6.40;;;5.70;;
21183;SDS011;18176;49.502;11.754;2022-07-23T11:37:40;6.40;;;5.43;;
21183;SDS011;18176;49.502;11.754;2022-07-23T11:41:44;6.68;;;5.70;;
21183;SDS011;18176;49.502;11.754;2022-07-23T11:45:42;6.45;;;5.35;;
21183;SDS011;18176;49.502;11.754;2022-07-23T11:49:54;5.97;;;5.35;;
21183;SDS011;18176;49.502;11.754;2022-07-23T11:54:05;6.00;;;5.20;;
21183;SDS011;18176;49.502;11.754;2022-07-23T11:58:03;7.03;;;5.63;;
21183;SDS011;18176;49.502;11.754;2022-07-23T12:02:01;6.53;;;4.95;;
21183;SDS011;18176;49.502;11.754;2022-07-23T12:06:01;6.38;;;5.05;;
21183;SDS011;18176;49.502;11.754;2022-07-23T12:09:58;7.88;;;4.80;;
21183;SDS011;18176;49.502;11.754;2022-07-23T12:14:08;4.40;;;4.00;;
21183;SDS011;18176;49.502;11.754;2022-07-23T12:18:06;4.20;;;3.80;;
21183;SDS011;18176;49.502;11.754;2022-07-23T12:22:06;4.10;;;3.70;;
21183;SDS011;18176;49.502;11.754;2022-07-23T12:26:03;4.47;;;3.67;;
21183;SDS011;18176;49.502;11.754;2022-07-23T12:30:19;4.07;;;3.70;;
21183;SDS011;18176;49.502;11.754;2022-07-23T12:34:29;4.25;;;3.83;;
21183;SDS011;18176;49.502;11.754;2022-07-23T12:38:27;5.13;;;4.38;;
21183;SDS011;18176;49.502;11.754;2022-07-23T12:42:40;4.72;;;4.32;;
21183;SDS011;18176;49.502;11.754;2022-07-23T12:46:39;5.22;;;4.80;;
21183;SDS011;18176;49.502;11.754;2022-07-23T12:50:43;5.72;;;5.18;;
21183;SDS011;18176;49.502;11.754;2022-07-23T12:54:45;5.40;;;4.90;;
21183;SDS011;18176;49.502;11.754;2022-07-23T13:02:53;8.35;;;5.45;;
21183;SDS011;18176;49.502;11.754;2022-07-23T13:06:57;5.97;;;5.38;;
21183;SDS011;18176;49.502;11.754;2022-07-23T13:10:59;6.05;;;5.22;;
21183;SDS011;18176;49.502;11.754;2022-07-23T13:14:57;6.00;;;5.40;;
21183;SDS011;18176;49.502;11.754;2022-07-23T13:18:55;7.32;;;5.80;;
21183;SDS011;18176;49.502;11.754;2022-07-23T13:22:54;5.30;;;4.80;;
21183;SDS011;18176;49.502;11.754;2022-07-23T13:26:51;6.30;;;4.97;;
21183;SDS011;18176;49.502;11.754;2022-07-23T13:30:49;5.47;;;4.97;;
21183;SDS011;18176;49.502;11.754;2022-07-23T13:34:47;5.60;;;5.20;;
21183;SDS011;18176;49.502;11.754;2022-07-23T13:38:45;5.90;;;5.40;;
21183;SDS011;18176;49.502;11.754;2022-07-23T13:42:43;6.60;;;5.97;;
21183;SDS011;18176;49.502;11.754;2022-07-23T13:46:40;6.43;;;5.68;;
21183;SDS011;18176;49.502;11.754;2022-07-23T13:50:39;6.22;;;5.70;;
21183;SDS011;18176;49.502;11.754;2022-07-23T13:54:37;6.25;;;5.65;;
21183;SDS011;18176;49.502;11.754;2022-07-23T13:58:35;6.50;;;5.90;;
21183;SDS011;18176;49.502;11.754;2022-07-23T14:02:32;6.47;;;5.93;;
21183;SDS011;18176;49.502;11.754;2022-07-23T14:06:32;6.97;;;6.38;;
21183;SDS011;18176;49.502;11.754;2022-07-23T14:10:29;7.40;;;6.80;;
21183;SDS011;18176;49.502;11.754;2022-07-23T14:14:27;6.97;;;5.95;;
21183;SDS011;18176;49.502;11.754;2022-07-23T14:18:24;7.40;;;6.53;;
21183;SDS011;18176;49.502;11.754;2022-07-23T14:22:28;7.22;;;6.63;;
21183;SDS011;18176;49.502;11.754;2022-07-23T14:26:25;7.00;;;6.38;;
21183;SDS011;18176;49.502;11.754;2022-07-23T14:30:22;8.05;;;7.15;;
21183;SDS011;18176;49.502;11.754;2022-07-23T14:34:27;7.65;;;6.95;;
21183;SDS011;18176;49.502;11.754;2022-07-23T14:38:25;8.45;;;7.22;;
21183;SDS011;18176;49.502;11.754;2022-07-23T14:42:23;8.15;;;7.05;;
21183;SDS011;18176;49.502;11.754;2022-07-23T14:46:20;8.55;;;7.75;;
21183;SDS011;18176;49.502;11.754;2022-07-23T14:50:17;8.48;;;7.72;;
21183;SDS011;18176;49.502;11.754;2022-07-23T14:54:14;12.00;;;7.80;;
21183;SDS011;18176;49.502;11.754;2022-07-23T14:58:13;9.43;;;8.43;;
21183;SDS011;18176;49.502;11.754;2022-07-23T15:02:10;8.90;;;8.02;;
21183;SDS011;18176;49.502;11.754;2022-07-23T15:06:09;8.43;;;7.57;;
21183;SDS011;18176;49.502;11.754;2022-07-23T15:10:07;8.57;;;7.68;;
21183;SDS011;18176;49.502;11.754;2022-07-23T15:14:05;8.50;;;7.68;;
21183;SDS011;18176;49.502;11.754;2022-07-23T15:18:04;10.57;;;7.80;;
21183;SDS011;18176;49.502;11.754;2022-07-23T15:22:01;8.55;;;7.70;;
21183;SDS011;18176;49.502;11.754;2022-07-23T15:26:03;8.68;;;7.93;;
21183;SDS011;18176;49.502;11.754;2022-07-23T15:30:03;9.15;;;7.80;;
21183;SDS011;18176;49.502;11.754;2022-07-23T15:34:03;8.73;;;7.90;;
21183;SDS011;18176;49.502;11.754;2022-07-23T15:38:02;8.85;;;7.88;;
21183;SDS011;18176;49.502;11.754;2022-07-23T15:42:06;8.88;;;7.38;;
21183;SDS011;18176;49.502;11.754;2022-07-23T15:46:09;9.57;;;8.32;;
21183;SDS011;18176;49.502;11.754;2022-07-23T15:50:07;11.82;;;8.02;;
21183;SDS011;18176;49.502;11.754;2022-07-23T15:54:06;8.85;;;8.05;;
21183;SDS011;18176;49.502;11.754;2022-07-23T15:58:03;9.80;;;9.00;;
21183;SDS011;18176;49.502;11.754;2022-07-23T16:02:01;9.82;;;8.93;;
21183;SDS011;18176;49.502;11.754;2022-07-23T16:05:59;11.13;;;8.70;;
21183;SDS011;18176;49.502;11.754;2022-07-23T16:09:57;8.93;;;8.18;;
21183;SDS011;18176;49.502;11.754;2022-07-23T16:13:54;8.90;;;8.10;;
21183;SDS011;18176;49.502;11.754;2022-07-23T16:17:52;9.73;;;8.70;;
21183;SDS011;18176;49.502;11.754;2022-07-23T16:21:51;8.80;;;8.00;;
21183;SDS011;18176;49.502;11.754;2022-07-23T16:25:48;9.25;;;7.82;;
21183;SDS011;18176;49.502;11.754;2022-07-23T16:29:45;13.65;;;8.52;;
21183;SDS011;18176;49.502;11.754;2022-07-23T16:33:42;15.43;;;9.05;;
21183;SDS011;18176;49.502;11.754;2022-07-23T16:37:40;11.60;;;8.10;;
21183;SDS011;18176;49.502;11.754;2022-07-23T16:41:38;9.57;;;8.50;;
21183;SDS011;18176;49.502;11.754;2022-07-23T16:45:35;9.55;;;8.60;;
21183;SDS011;18176;49.502;11.754;2022-07-23T16:49:32;12.52;;;8.65;;
21183;SDS011;18176;49.502;11.754;2022-07-23T16:53:30;10.00;;;8.60;;
21183;SDS011;18176;49.502;11.754;2022-07-23T16:57:27;9.80;;;8.80;;
21183;SDS011;18176;49.502;11.754;2022-07-23T17:01:25;11.30;;;8.18;;
21183;SDS011;18176;49.502;11.754;2022-07-23T17:05:22;10.57;;;8.30;;
21183;SDS011;18176;49.502;11.754;2022-07-23T17:09:19;9.05;;;8.07;;
21183;SDS011;18176;49.502;11.754;2022-07-23T17:13:17;9.85;;;8.50;;
21183;SDS011;18176;49.502;11.754;2022-07-23T17:17:14;9.38;;;8.10;;
21183;SDS011;18176;49.502;11.754;2022-07-23T17:21:11;10.18;;;8.20;;
21183;SDS011;18176;49.502;11.754;2022-07-23T17:25:09;9.10;;;7.60;;
21183;SDS011;18176;49.502;11.754;2022-07-23T17:29:10;11.25;;;8.10;;
21183;SDS011;18176;49.502;11.754;2022-07-23T17:33:08;9.90;;;7.78;;
21183;SDS011;18176;49.502;11.754;2022-07-23T17:37:05;8.95;;;7.60;;
21183;SDS011;18176;49.502;11.754;2022-07-23T17:41:05;12.45;;;7.70;;
21183;SDS011;18176;49.502;11.754;2022-07-23T17:45:03;9.40;;;7.63;;
21183;SDS011;18176;49.502;11.754;2022-07-23T17:49:02;9.95;;;8.20;;
21183;SDS011;18176;49.502;11.754;2022-07-23T17:53:00;9.50;;;7.75;;
21183;SDS011;18176;49.502;11.754;2022-07-23T17:56:57;15.38;;;8.43;;
21183;SDS011;18176;49.502;11.754;2022-07-23T18:01:02;9.40;;;7.40;;
21183;SDS011;18176;49.502;11.754;2022-07-23T18:05:01;8.38;;;7.55;;
21183;SDS011;18176;49.502;11.754;2022-07-23T18:08:59;12.10;;;7.65;;
21183;SDS011;18176;49.502;11.754;2022-07-23T18:13:03;11.00;;;7.32;;
21183;SDS011;18176;49.502;11.754;2022-07-23T18:17:02;9.38;;;7.18;;
21183;SDS011;18176;49.502;11.754;2022-07-23T18:21:01;10.23;;;7.05;;
21183;SDS011;18176;49.502;11.754;2022-07-23T18:25:00;7.95;;;6.90;;
21183;SDS011;18176;49.502;11.754;2022-07-23T18:28:58;8.80;;;6.47;;
21183;SDS011;18176;49.502;11.754;2022-07-23T18:32:56;11.10;;;6.20;;
21183;SDS011;18176;49.502;11.754;2022-07-23T18:37:00;6.63;;;5.82;;
21183;SDS011;18176;49.502;11.754;2022-07-23T18:40:57;7.03;;;6.32;;
21183;SDS011;18176;49.502;11.754;2022-07-23T18:44:54;7.00;;;6.18;;
21183;SDS011;18176;49.502;11.754;2022-07-23T18:48:51;7.30;;;6.28;;
21183;SDS011;18176;49.502;11.754;2022-07-23T18:52:49;9.10;;;6.10;;
21183;SDS011;18176;49.502;11.754;2022-07-23T18:56:46;7.20;;;6.47;;
21183;SDS011;18176;49.502;11.754;2022-07-23T19:00:43;10.00;;;6.55;;
21183;SDS011;18176;49.502;11.754;2022-07-23T19:04:41;9.80;;;6.20;;
21183;SDS011;18176;49.502;11.754;2022-07-23T19:08:38;9.63;;;6.95;;
21183;SDS011;18176;49.502;11.754;2022-07-23T19:12:37;8.70;;;6.85;;
21183;SDS011;18176;49.502;11.754;2022-07-23T19:16:34;9.25;;;6.45;;
21183;SDS011;18176;49.502;11.754;2022-07-23T19:20:32;7.53;;;6.20;;
21183;SDS011;18176;49.502;11.754;2022-07-23T19:24:29;8.73;;;7.20;;
21183;SDS011;18176;49.502;11.754;2022-07-23T19:28:28;7.78;;;6.97;;
21183;SDS011;18176;49.502;11.754;2022-07-23T19:32:25;10.07;;;7.38;;
21183;SDS011;18176;49.502;11.754;2022-07-23T19:36:26;8.07;;;6.50;;
21183;SDS011;18176;49.502;11.754;2022-07-23T19:40:23;9.82;;;6.38;;
21183;SDS011;18176;49.502;11.754;2022-07-23T19:44:21;10.50;;;7.40;;
21183;SDS011;18176;49.502;11.754;2022-07-23T19:48:19;9.45;;;6.97;;
21183;SDS011;18176;49.502;11.754;2022-07-23T19:52:16;7.75;;;6.90;;
21183;SDS011;18176;49.502;11.754;2022-07-23T19:56:13;9.20;;;7.05;;
21183;SDS011;18176;49.502;11.754;2022-07-23T20:00:12;9.93;;;7.30;;
21183;SDS011;18176;49.502;11.754;2022-07-23T20:04:11;7.13;;;6.43;;
21183;SDS011;18176;49.502;11.754;2022-07-23T20:08:08;10.70;;;6.10;;
21183;SDS011;18176;49.502;11.754;2022-07-23T20:12:12;10.43;;;6.55;;
21183;SDS011;18176;49.502;11.754;2022-07-23T20:16:12;7.80;;;6.40;;
21183;SDS011;18176;49.502;11.754;2022-07-23T20:20:09;11.43;;;6.43;;
21183;SDS011;18176;49.502;11.754;2022-07-23T20:24:07;7.18;;;6.25;;
21183;SDS011;18176;49.502;11.754;2022-07-23T20:28:06;8.85;;;6.93;;
21183;SDS011;18176;49.502;11.754;2022-07-23T20:32:04;8.73;;;6.78;;
21183;SDS011;18176;49.502;11.754;2022-07-23T20:36:01;8.32;;;7.15;;
21183;SDS011;18176;49.502;11.754;2022-07-23T20:39:59;9.68;;;7.43;;
21183;SDS011;18176;49.502;11.754;2022-07-23T20:43:56;8.50;;;7.50;;
21183;SDS011;18176;49.502;11.754;2022-07-23T20:47:54;9.38;;;7.72;;
21183;SDS011;18176;49.502;11.754;2022-07-23T20:51:51;9.95;;;8.20;;
21183;SDS011;18176;49.502;11.754;2022-07-23T20:55:48;9.57;;;8.02;;
21183;SDS011;18176;49.502;11.754;2022-07-23T20:59:45;11.43;;;8.00;;
21183;SDS011;18176;49.502;11.754;2022-07-23T21:03:43;11.80;;;8.43;;
21183;SDS011;18176;49.502;11.754;2022-07-23T21:07:40;9.98;;;8.02;;
21183;SDS011;18176;49.502;11.754;2022-07-23T21:11:40;9.27;;;8.30;;
21183;SDS011;18176;49.502;11.754;2022-07-23T21:15:37;14.70;;;8.73;;
21183;SDS011;18176;49.502;11.754;2022-07-23T21:19:34;10.77;;;8.93;;
21183;SDS011;18176;49.502;11.754;2022-07-23T21:23:31;16.27;;;8.82;;
21183;SDS011;18176;49.502;11.754;2022-07-23T21:27:32;10.75;;;9.50;;
21183;SDS011;18176;49.502;11.754;2022-07-23T21:31:30;10.80;;;9.70;;
21183;SDS011;18176;49.502;11.754;2022-07-23T21:35:28;17.35;;;10.48;;
21183;SDS011;18176;49.502;11.754;2022-07-23T21:39:25;10.65;;;9.32;;
21183;SDS011;18176;49.502;11.754;2022-07-23T21:43:27;12.07;;;10.35;;
21183;SDS011;18176;49.502;11.754;2022-07-23T21:47:24;11.85;;;10.18;;
21183;SDS011;18176;49.502;11.754;2022-07-23T21:51:21;13.68;;;10.93;;
21183;SDS011;18176;49.502;11.754;2022-07-23T21:55:19;13.00;;;10.43;;
21183;SDS011;18176;49.502;11.754;2022-07-23T21:59:16;11.85;;;10.65;;
21183;SDS011;18176;49.502;11.754;2022-07-23T22:03:13;11.85;;;10.48;;
21183;SDS011;18176;49.502;11.754;2022-07-23T22:07:10;11.73;;;10.50;;
21183;SDS011;18176;49.502;11.754;2022-07-23T22:11:10;12.25;;;11.00;;
21183;SDS011;18176;49.502;11.754;2022-07-23T22:15:08;11.85;;;10.18;;
21183;SDS011;18176;49.502;11.754;2022-07-23T22:19:09;15.55;;;10.52;;
21183;SDS011;18176;49.502;11.754;2022-07-23T22:23:07;15.88;;;10.73;;
21183;SDS011;18176;49.502;11.754;2022-07-23T22:27:04;11.27;;;10.07;;
21183;SDS011;18176;49.502;11.754;2022-07-23T22:31:02;11.55;;;10.32;;
21183;SDS011;18176;49.502;11.754;2022-07-23T22:35:03;11.85;;;10.00;;
21183;SDS011;18176;49.502;11.754;2022-07-23T22:39:02;12.07;;;10.82;;
21183;SDS011;18176;49.502;11.754;2022-07-23T22:43:01;13.02;;;11.70;;
21183;SDS011;18176;49.502;11.754;2022-07-23T22:46:58;14.93;;;12.15;;
21183;SDS011;18176;49.502;11.754;2022-07-23T22:50:56;14.80;;;12.63;;
21183;SDS011;18176;49.502;11.754;2022-07-23T22:54:54;15.10;;;12.68;;
21183;SDS011;18176;49.502;11.754;2022-07-23T22:58:51;15.70;;;12.95;;
21183;SDS011;18176;49.502;11.754;2022-07-23T23:03:08;16.00;;;12.07;;
21183;SDS011;18176;49.502;11.754;2022-07-23T23:07:05;14.05;;;11.10;;
21183;SDS011;18176;49.502;11.754;2022-07-23T23:11:02;13.70;;;10.35;;
21183;SDS011;18176;49.502;11.754;2022-07-23T23:14:59;10.98;;;9.88;;
21183;SDS011;18176;49.502;11.754;2022-07-23T23:18:58;14.20;;;11.15;;
21183;SDS011;18176;49.502;11.754;2022-07-23T23:22:55;15.73;;;12.02;;
21183;SDS011;18176;49.502;11.754;2022-07-23T23:26:52;15.05;;;12.07;;
21183;SDS011;18176;49.502;11.754;2022-07-23T23:30:49;15.13;;;11.98;;
21183;SDS011;18176;49.502;11.754;2022-07-23T23:34:47;16.85;;;12.25;;
21183;SDS011;18176;49.502;11.754;2022-07-23T23:38:44;14.55;;;12.38;;
21183;SDS011;18176;49.502;11.754;2022-07-23T23:42:41;13.63;;;12.23;;
21183;SDS011;18176;49.502;11.754;2022-07-23T23:46:38;14.68;;;13.02;;
21183;SDS011;18176;49.502;11.754;2022-07-23T23:50:37;14.38;;;12.38;;
21183;SDS011;18176;49.502;11.754;2022-07-23T23:54:34;16.92;;;12.25;;